Time;durP1;ratioP1;P1;durP2;ratioP2;P2;SDS_P1;SDS_P2;PMS_P1;PMS_P2;Temp;Humidity;BMP_temperature;BMP_pressure;BME280_temperature;BME280_humidity;BME280_pressure;Samples;Min_cycle;Max_cycle;Signal;HPM_P1;HPM_P2
2020/12/08 00:04:07;;;;;;;29.87;12.03;;;;;;;3.59;83.48;99261.47;8725965;32;20412;-73
2020/12/08 00:09:09;;;;;;;29.97;13.67;;;;;;;3.56;83.44;99251.94;8722744;32;20137;-72
2020/12/08 00:14:12;;;;;;;30.00;13.17;;;;;;;3.55;83.38;99252.03;8723046;32;20514;-72
2020/12/08 00:19:15;;;;;;;33.67;14.17;;;;;;;3.55;83.41;99255.50;8724742;32;20397;-74
2020/12/08 00:24:17;;;;;;;36.23;15.10;;;;;;;3.59;83.68;99250.06;8724086;32;20407;-73
2020/12/08 00:29:20;;;;;;;31.03;14.17;;;;;;;3.56;83.27;99249.31;8724597;32;20266;-75
2020/12/08 00:34:22;;;;;;;28.30;13.03;;;;;;;3.58;83.50;99251.84;8722881;32;20138;-75
2020/12/08 00:39:25;;;;;;;30.00;13.63;;;;;;;3.64;83.64;99240.94;8723249;32;20195;-73
2020/12/08 00:44:28;;;;;;;30.67;13.60;;;;;;;3.61;83.71;99243.75;8719636;32;20518;-74
2020/12/08 00:49:30;;;;;;;30.93;12.80;;;;;;;3.58;83.51;99254.50;8690553;32;20395;-73
2020/12/08 00:54:34;;;;;;;31.47;13.90;;;;;;;3.68;83.48;99241.63;8690393;32;20551;-73
2020/12/08 00:59:44;;;;;;;29.67;14.07;;;;;;;3.69;84.21;99248.59;8715031;32;20424;-74
2020/12/08 01:04:46;;;;;;;29.63;13.13;;;;;;;3.69;83.57;99251.25;8716441;32;20161;-74
2020/12/08 01:09:52;;;;;;;33.90;14.67;;;;;;;3.68;84.35;99253.03;8710665;32;20422;-74
2020/12/08 01:14:55;;;;;;;34.37;14.53;;;;;;;3.73;83.61;99252.75;8683754;32;20500;-74
2020/12/08 01:20:00;;;;;;;33.90;14.20;;;;;;;3.71;83.17;99252.03;8683471;32;20513;-74
2020/12/08 01:25:04;;;;;;;34.27;13.47;;;;;;;3.66;83.73;99252.28;8708174;32;20142;-73
2020/12/08 01:30:10;;;;;;;35.33;15.20;;;;;;;3.71;83.57;99263.44;8682171;32;20173;-74
2020/12/08 01:35:20;;;;;;;30.90;13.07;;;;;;;3.68;83.59;99268.88;8681020;32;20208;-75
2020/12/08 01:40:29;;;;;;;32.23;14.17;;;;;;;3.69;83.56;99277.66;8682768;32;20892;-73
2020/12/08 01:45:32;;;;;;;30.37;12.10;;;;;;;3.80;83.45;99283.19;8707202;32;20701;-75
2020/12/08 01:50:35;;;;;;;30.43;14.33;;;;;;;3.91;83.45;99270.22;8682762;32;20880;-74
2020/12/08 01:55:39;;;;;;;31.07;13.10;;;;;;;4.01;82.83;99276.69;8682735;32;21004;-73
2020/12/08 02:00:43;;;;;;;31.67;12.63;;;;;;;4.07;82.32;99267.56;8683846;32;20508;-74
2020/12/08 02:05:46;;;;;;;31.53;13.83;;;;;;;4.21;82.08;99266.75;8674796;32;20968;-73
2020/12/08 02:10:49;;;;;;;29.20;12.13;;;;;;;4.28;81.95;99275.16;8692902;32;20435;-73
2020/12/08 02:15:52;;;;;;;32.10;12.60;;;;;;;4.35;81.67;99279.16;8691197;32;20407;-73
2020/12/08 02:20:58;;;;;;;29.33;12.60;;;;;;;4.41;81.68;99274.34;8668352;32;20204;-74
2020/12/08 02:26:06;;;;;;;29.07;12.80;;;;;;;4.38;81.50;99274.53;8667191;32;21192;-74
2020/12/08 02:31:10;;;;;;;26.27;11.97;;;;;;;4.35;81.10;99263.28;8679554;32;20421;-74
2020/12/08 02:36:13;;;;;;;28.73;13.37;;;;;;;4.40;81.24;99266.50;8678067;32;20141;-74
2020/12/08 02:41:16;;;;;;;31.27;13.57;;;;;;;4.40;80.94;99262.06;8689626;32;20430;-74
2020/12/08 02:46:18;;;;;;;26.60;12.67;;;;;;;4.48;81.29;99269.56;8664330;32;20150;-74
2020/12/08 02:51:21;;;;;;;28.80;12.37;;;;;;;4.50;80.66;99272.09;8693742;32;21962;-73
2020/12/08 02:56:30;;;;;;;23.57;11.77;;;;;;;4.49;80.79;99278.34;8701806;32;20433;-74
2020/12/08 03:01:38;;;;;;;27.77;12.97;;;;;;;4.49;80.91;99278.34;8678522;32;20185;-74
2020/12/08 03:06:42;;;;;;;28.53;13.30;;;;;;;4.37;81.14;99282.56;8681282;32;20150;-74
2020/12/08 03:11:46;;;;;;;30.53;13.07;;;;;;;4.36;80.96;99276.44;8686618;32;20998;-74
2020/12/08 03:16:56;;;;;;;31.30;12.37;;;;;;;4.33;81.35;99275.75;8692737;32;20701;-74
2020/12/08 03:22:01;;;;;;;28.83;12.80;;;;;;;4.41;81.42;99292.00;8693590;32;20189;-74
2020/12/08 03:27:16;;;;;;;30.07;12.80;;;;;;;4.46;81.96;99284.66;8693320;32;20544;-74
2020/12/08 03:32:21;;;;;;;29.13;13.90;;;;;;;4.54;81.10;99286.84;8715046;32;20432;-75
2020/12/08 03:37:24;;;;;;;26.07;11.47;;;;;;;4.58;81.52;99273.38;8713146;32;20138;-75
2020/12/08 03:42:32;;;;;;;25.97;12.23;;;;;;;4.60;81.21;99273.25;8686463;32;21107;-74
2020/12/08 03:47:36;;;;;;;27.07;12.43;;;;;;;4.60;81.38;99270.63;8686850;32;20540;-74
2020/12/08 03:52:42;;;;;;;25.43;12.07;;;;;;;4.54;81.21;99265.69;8687471;32;20398;-74
2020/12/08 03:57:45;;;;;;;30.07;13.03;;;;;;;4.50;80.90;99257.09;8686882;32;20445;-74
2020/12/08 04:02:52;;;;;;;25.30;11.83;;;;;;;4.46;81.47;99268.78;8691127;32;21811;-74
2020/12/08 04:07:59;;;;;;;28.97;13.40;;;;;;;4.44;81.10;99268.03;8693435;32;20164;-74
2020/12/08 04:13:06;;;;;;;27.47;13.23;;;;;;;4.48;81.26;99274.00;8698658;32;20793;-73
2020/12/08 04:18:11;;;;;;;27.50;13.30;;;;;;;4.47;81.16;99270.50;8697292;32;20212;-74
2020/12/08 04:23:17;;;;;;;24.83;12.03;;;;;;;4.53;81.07;99266.66;8718592;32;20626;-74
2020/12/08 04:28:21;;;;;;;25.13;11.35;;;;;;;4.48;81.21;99264.28;8693343;32;20500;-74
2020/12/08 04:33:27;;;;;;;27.30;12.07;;;;;;;4.57;81.15;99262.88;8692472;32;21455;-74
2020/12/08 04:38:31;;;;;;;24.33;12.27;;;;;;;4.59;81.07;99268.91;8716758;32;20197;-74
2020/12/08 04:43:46;;;;;;;30.40;11.13;;;;;;;4.62;80.94;99282.81;8716501;32;20152;-74
2020/12/08 04:48:51;;;;;;;29.43;12.67;;;;;;;4.65;81.11;99285.25;8715760;32;20459;-74
2020/12/08 04:53:54;;;;;;;28.80;12.77;;;;;;;4.68;81.00;99281.59;8715218;32;20133;-74
2020/12/08 04:58:57;;;;;;;24.83;11.37;;;;;;;4.71;80.87;99272.63;8715796;32;20434;-74
2020/12/08 05:04:01;;;;;;;28.47;11.03;;;;;;;4.75;81.03;99268.84;8718064;32;20188;-75
2020/12/08 05:09:08;;;;;;;29.97;13.13;;;;;;;4.76;80.69;99263.44;8719906;32;21561;-72
2020/12/08 05:14:10;;;;;;;23.03;11.50;;;;;;;4.82;80.80;99271.00;8675645;32;20185;-74
2020/12/08 05:19:13;;;;;;;24.90;11.47;;;;;;;4.83;80.56;99261.31;8711711;32;20994;-74
2020/12/08 05:24:24;;;;;;;31.90;12.20;;;;;;;4.84;80.34;99274.41;8714102;32;20911;-73
2020/12/08 05:29:27;;;;;;;22.67;10.83;;;;;;;4.85;80.27;99273.50;8713482;32;20176;-73
2020/12/08 05:34:32;;;;;;;23.00;11.13;;;;;;;4.84;80.65;99285.00;8712355;32;20612;-73
2020/12/08 05:39:36;;;;;;;23.37;10.90;;;;;;;4.88;80.77;99285.66;8711320;32;20439;-73
2020/12/08 05:44:40;;;;;;;23.40;10.60;;;;;;;4.91;80.44;99285.50;8712207;32;20722;-73
2020/12/08 05:49:42;;;;;;;26.63;11.60;;;;;;;4.91;80.03;99282.84;8686778;32;20422;-73
2020/12/08 05:54:45;;;;;;;25.07;11.07;;;;;;;4.93;80.12;99280.94;8712535;32;20433;-73
2020/12/08 05:59:54;;;;;;;21.33;9.93;;;;;;;4.96;80.26;99277.25;8712706;32;20426;-74
2020/12/08 06:04:57;;;;;;;19.77;10.80;;;;;;;4.94;80.53;99272.09;8713364;32;20156;-73
2020/12/08 06:10:06;;;;;;;23.97;11.63;;;;;;;4.94;80.07;99287.09;8714137;32;20539;-73
2020/12/08 06:15:21;;;;;;;22.77;11.25;;;;;;;4.92;80.25;99287.19;8710137;32;20179;-74
2020/12/08 06:20:23;;;;;;;22.90;11.65;;;;;;;4.93;80.29;99280.94;8709513;32;20192;-73
2020/12/08 06:25:28;;;;;;;20.65;10.35;;;;;;;4.94;80.30;99289.72;8710159;32;20435;-74
2020/12/08 06:30:30;;;;;;;21.20;11.00;;;;;;;4.94;80.45;99302.97;8710510;32;20400;-73
2020/12/08 06:35:35;;;;;;;19.70;10.27;;;;;;;4.93;80.57;99307.41;8712172;32;20469;-72
2020/12/08 06:40:52;;;;;;;24.13;10.50;;;;;;;4.94;80.61;99311.78;8713070;32;20446;-74
2020/12/08 06:46:07;;;;;;;21.45;10.60;;;;;;;4.92;80.64;99318.13;8711067;32;20931;-74
2020/12/08 06:51:16;;;;;;;26.05;11.85;;;;;;;4.92;80.62;99313.66;8713055;32;20599;-72
2020/12/08 06:56:29;;;;;;;19.95;11.15;;;;;;;4.90;80.55;99318.19;8713471;32;20412;-72
2020/12/08 07:01:32;;;;;;;24.53;11.07;;;;;;;4.94;80.34;99314.44;8713755;32;20614;-72
2020/12/08 07:06:34;;;;;;;26.42;12.23;;;;;;;4.97;80.76;99316.03;8715902;32;20420;-72
2020/12/08 07:11:37;;;;;;;22.23;10.70;;;;;;;4.95;80.02;99317.91;8713711;32;20157;-72
2020/12/08 07:16:41;;;;;;;22.15;10.50;;;;;;;4.96;80.32;99330.19;8713659;32;20958;-72
2020/12/08 07:21:44;;;;;;;22.95;11.40;;;;;;;4.95;80.15;99331.16;8713590;32;20413;-74
2020/12/08 07:26:47;;;;;;;21.33;10.95;;;;;;;4.98;80.04;99330.97;8714181;32;20552;-74
2020/12/08 07:31:49;;;;;;;22.67;10.88;;;;;;;4.97;79.36;99343.34;8716062;32;21298;-74
2020/12/08 07:36:51;;;;;;;25.73;12.45;;;;;;;4.96;79.53;99349.56;8715278;32;20178;-74
2020/12/08 07:42:04;;;;;;;27.42;12.68;;;;;;;4.99;79.43;99353.84;8719279;32;20463;-74
2020/12/08 07:47:12;;;;;;;21.17;11.55;;;;;;;5.02;79.33;99348.34;8716717;32;20409;-74
2020/12/08 07:52:19;;;;;;;19.05;10.85;;;;;;;5.05;79.77;99348.19;8714752;32;20705;-74
2020/12/08 07:57:22;;;;;;;30.27;12.32;;;;;;;5.08;79.43;99340.06;8715713;32;20349;-74
2020/12/08 08:02:25;;;;;;;22.90;10.53;;;;;;;5.14;79.22;99342.31;8719650;32;20481;-74
2020/12/08 08:07:27;;;;;;;21.75;10.88;;;;;;;5.20;79.36;99341.94;8733423;32;20236;-73
2020/12/08 08:12:31;;;;;;;22.55;11.07;;;;;;;5.24;79.19;99351.41;8745733;32;20424;-74
2020/12/08 08:17:33;;;;;;;13.38;5.82;;;;;;;5.29;79.17;99352.00;8730596;32;20145;-74
2020/12/08 08:22:36;;;;;;;27.15;12.57;;;;;;;5.62;79.63;99353.47;8719339;32;20395;-74
2020/12/08 08:27:39;;;;;;;21.40;11.18;;;;;;;5.86;78.62;99347.56;8719239;32;20177;-74
2020/12/08 08:32:42;;;;;;;18.52;9.18;;;;;;;6.02;77.72;99350.97;8718182;32;22008;-74
2020/12/08 08:37:45;;;;;;;16.80;9.73;;;;;;;6.17;76.75;99351.75;8720923;32;20433;-74
2020/12/08 08:42:48;;;;;;;18.95;9.88;;;;;;;6.05;76.62;99358.72;8697081;32;20240;-74
2020/12/08 08:47:51;;;;;;;17.38;9.23;;;;;;;5.96;76.65;99351.38;8722026;32;20765;-75
2020/12/08 08:52:54;;;;;;;21.33;11.10;;;;;;;5.92;76.96;99355.13;8728674;32;22036;-74
2020/12/08 08:57:57;;;;;;;22.80;10.98;;;;;;;5.86;76.93;99360.81;8731962;32;20238;-74
2020/12/08 09:03:04;;;;;;;21.58;10.38;;;;;;;5.83;77.07;99359.22;8722548;32;20420;-74
2020/12/08 09:08:06;;;;;;;18.58;9.98;;;;;;;5.86;77.24;99364.31;8727129;32;20409;-74
2020/12/08 09:13:10;;;;;;;18.95;9.48;;;;;;;5.81;76.98;99366.41;8737517;32;20404;-74
2020/12/08 09:18:12;;;;;;;21.63;10.25;;;;;;;5.80;76.96;99365.56;8699134;32;20931;-74
2020/12/08 09:23:15;;;;;;;22.77;10.38;;;;;;;5.82;76.66;99369.94;8728438;32;20411;-74
2020/12/08 09:28:19;;;;;;;20.38;10.85;;;;;;;5.86;76.43;99374.06;8724106;32;20182;-74
2020/12/08 09:33:21;;;;;;;20.00;10.55;;;;;;;5.82;76.38;99368.13;8718626;32;20153;-75
2020/12/08 09:38:24;;;;;;;18.13;9.73;;;;;;;5.87;76.39;99370.47;8719344;32;20499;-74
2020/12/08 09:43:27;;;;;;;19.98;10.35;;;;;;;6.00;76.11;99376.72;8723470;32;20144;-74
2020/12/08 09:48:30;;;;;;;21.00;10.13;;;;;;;5.96;75.59;99380.53;8730325;32;20686;-74
2020/12/08 09:53:32;;;;;;;21.00;10.70;;;;;;;6.00;75.78;99382.88;8735843;32;21149;-74
2020/12/08 09:58:35;;;;;;;19.42;9.23;;;;;;;6.00;75.58;99385.53;8735634;32;20181;-74
2020/12/08 10:03:38;;;;;;;20.05;9.75;;;;;;;5.99;75.27;99380.34;8736274;32;21894;-74
2020/12/08 10:08:41;;;;;;;21.52;10.23;;;;;;;6.03;75.30;99386.28;8736080;32;20422;-74
2020/12/08 10:13:44;;;;;;;21.35;10.65;;;;;;;5.98;75.30;99376.00;8735896;32;20212;-74
2020/12/08 10:18:48;;;;;;;20.55;10.23;;;;;;;6.09;75.68;99375.28;8734555;32;20403;-74
2020/12/08 10:23:52;;;;;;;23.88;10.60;;;;;;;6.19;75.99;99376.41;8709638;32;20405;-74
2020/12/08 10:28:56;;;;;;;18.45;10.23;;;;;;;6.17;75.25;99379.16;8735211;32;21076;-74
2020/12/08 10:33:58;;;;;;;29.23;13.93;;;;;;;6.23;75.00;99383.22;8738725;32;20409;-74
2020/12/08 10:39:01;;;;;;;28.48;13.00;;;;;;;6.22;74.59;99389.44;8740418;32;20658;-75
2020/12/08 10:44:06;;;;;;;34.83;17.90;;;;;;;6.27;73.99;99389.16;8738100;32;20525;-74
2020/12/08 10:49:08;;;;;;;29.13;13.70;;;;;;;6.43;74.29;99389.88;8734853;32;20636;-73
2020/12/08 10:54:12;;;;;;;42.33;18.42;;;;;;;6.44;73.74;99387.13;8734229;32;20416;-73
2020/12/08 10:59:15;;;;;;;33.20;16.23;;;;;;;6.59;73.20;99379.94;8708852;32;20192;-75
2020/12/08 11:04:30;;;;;;;37.95;17.17;;;;;;;6.62;73.56;99382.38;8740179;32;22008;-75
2020/12/08 11:09:34;;;;;;;57.95;24.92;;;;;;;6.54;73.03;99383.84;8740658;32;20919;-75
2020/12/08 11:14:37;;;;;;;29.70;14.32;;;;;;;6.62;73.31;99366.47;8742311;32;20173;-73
2020/12/08 11:19:40;;;;;;;21.67;11.48;;;;;;;6.79;73.11;99377.75;8741482;32;22700;-73
2020/12/08 11:24:43;;;;;;;24.23;12.95;;;;;;;6.70;72.67;99373.09;8737544;32;20209;-74
2020/12/08 11:29:46;;;;;;;24.45;13.05;;;;;;;6.61;72.39;99369.22;8737067;32;20406;-73
2020/12/08 11:34:51;;;;;;;20.52;10.70;;;;;;;6.68;72.60;99365.19;8742092;32;21231;-73
2020/12/08 11:39:54;;;;;;;24.05;11.57;;;;;;;6.71;72.60;99359.69;8734069;32;20390;-74
2020/12/08 11:44:57;;;;;;;30.63;13.07;;;;;;;7.00;72.53;99354.22;8746705;32;20596;-73
2020/12/08 11:50:00;;;;;;;22.75;11.18;;;;;;;7.35;70.30;99352.63;8730930;32;20415;-74
2020/12/08 11:55:06;;;;;;;20.73;10.63;;;;;;;7.86;69.23;99354.34;8706156;32;20406;-74
2020/12/08 12:00:10;;;;;;;22.90;11.32;;;;;;;8.08;68.13;99343.00;8740349;32;20392;-74
2020/12/08 12:05:15;;;;;;;20.90;11.18;;;;;;;7.99;67.67;99349.00;8740982;32;20458;-74
2020/12/08 12:10:17;;;;;;;19.60;10.30;;;;;;;7.80;68.24;99345.00;8714939;32;20145;-72
2020/12/08 12:15:21;;;;;;;32.67;17.15;;;;;;;8.42;69.01;99345.88;8702262;32;20545;-72
2020/12/08 12:20:23;;;;;;;19.17;10.43;;;;;;;9.73;63.72;99337.50;8724417;32;20405;-72
2020/12/08 12:25:26;;;;;;;22.20;11.82;;;;;;;10.04;62.19;99343.03;8723860;32;20203;-72
2020/12/08 12:30:29;;;;;;;20.83;10.77;;;;;;;11.72;58.36;99324.41;8724951;32;20404;-73
2020/12/08 12:35:31;;;;;;;18.75;10.50;;;;;;;12.14;55.68;99319.75;8724039;32;20164;-71
2020/12/08 12:40:34;;;;;;;20.63;11.10;;;;;;;10.45;57.89;99328.16;8723263;32;20177;-73
2020/12/08 12:45:38;;;;;;;17.17;9.52;;;;;;;8.69;62.95;99329.63;8723271;32;21001;-74
2020/12/08 12:50:41;;;;;;;21.02;10.32;;;;;;;7.88;65.80;99323.19;8724682;32;20160;-74
2020/12/08 12:55:43;;;;;;;21.15;10.52;;;;;;;7.49;67.68;99324.25;8736355;32;20181;-73
2020/12/08 13:00:47;;;;;;;21.13;10.40;;;;;;;7.63;67.31;99326.75;8736492;32;20562;-74
2020/12/08 13:06:08;;;;;;;22.70;11.13;;;;;;;8.58;65.62;99326.94;8738278;32;20411;-72
2020/12/08 13:11:14;;;;;;;20.83;10.15;;;;;;;8.95;64.48;99330.31;8736396;32;20429;-72
2020/12/08 13:16:18;;;;;;;20.27;10.45;;;;;;;8.72;64.75;99328.53;8738331;32;21261;-74
2020/12/08 13:21:20;;;;;;;17.40;9.30;;;;;;;8.56;64.48;99331.53;8739329;32;20391;-74
2020/12/08 13:26:23;;;;;;;19.02;9.75;;;;;;;8.29;64.79;99319.28;8740505;32;20415;-73
2020/12/08 13:31:26;;;;;;;31.40;13.02;;;;;;;7.99;66.05;99317.91;8730391;32;20146;-74
2020/12/08 13:36:30;;;;;;;23.88;11.95;;;;;;;7.75;67.17;99331.19;8721410;32;20386;-74
2020/12/08 13:41:32;;;;;;;25.38;12.18;;;;;;;7.58;67.69;99334.22;8718110;32;20420;-74
2020/12/08 13:46:36;;;;;;;25.05;11.88;;;;;;;7.60;68.48;99345.59;8717049;32;20628;-74
2020/12/08 13:51:41;;;;;;;29.75;14.02;;;;;;;7.72;68.18;99354.50;8714762;32;20918;-74
2020/12/08 13:56:43;;;;;;;23.40;11.70;;;;;;;8.35;67.24;99361.41;8716063;32;20414;-74
2020/12/08 14:01:47;;;;;;;20.13;11.13;;;;;;;9.41;63.73;99357.88;8718893;32;20548;-73
2020/12/08 14:06:49;;;;;;;21.48;10.52;;;;;;;10.37;62.51;99366.16;8718569;32;20426;-73
2020/12/08 14:11:52;;;;;;;20.30;11.45;;;;;;;10.56;58.71;99352.13;8690900;32;20181;-73
2020/12/08 14:16:58;;;;;;;21.20;10.40;;;;;;;9.47;61.06;99352.91;8717170;32;20142;-74
2020/12/08 14:22:01;;;;;;;16.90;9.13;;;;;;;8.70;63.42;99359.78;8691067;32;20185;-74
2020/12/08 14:27:03;;;;;;;19.08;11.50;;;;;;;8.24;64.45;99364.00;8714186;32;20407;-74
2020/12/08 14:32:07;;;;;;;20.42;10.65;;;;;;;8.02;65.38;99370.88;8711977;32;20149;-74
2020/12/08 14:37:09;;;;;;;22.40;11.85;;;;;;;7.82;66.94;99381.28;8709706;32;20418;-73
2020/12/08 14:42:15;;;;;;;26.27;11.48;;;;;;;7.60;67.96;99371.28;8708530;32;20154;-72
2020/12/08 14:47:18;;;;;;;31.40;13.13;;;;;;;7.45;69.01;99375.88;8708266;32;20246;-74
2020/12/08 14:52:21;;;;;;;46.10;13.05;;;;;;;7.23;69.74;99380.03;8711273;32;20427;-74
2020/12/08 14:57:24;;;;;;;32.05;13.32;;;;;;;7.05;70.67;99370.69;8711775;32;20262;-74
2020/12/08 15:02:27;;;;;;;31.17;12.38;;;;;;;6.90;71.29;99381.38;8713931;32;20567;-74
2020/12/08 15:07:31;;;;;;;43.67;15.02;;;;;;;6.81;72.04;99378.50;8715991;32;20710;-74
2020/12/08 15:12:33;;;;;;;32.35;13.65;;;;;;;6.68;72.76;99374.00;8712997;32;20413;-73
2020/12/08 15:17:37;;;;;;;19.83;11.10;;;;;;;6.50;73.28;99399.13;8713440;32;20613;-74
2020/12/08 15:22:39;;;;;;;25.60;11.48;;;;;;;6.49;73.66;99396.56;8711839;32;20415;-72
2020/12/08 15:27:41;;;;;;;23.30;11.23;;;;;;;6.48;73.58;99393.06;8715610;32;20146;-72
2020/12/08 15:32:45;;;;;;;31.85;13.63;;;;;;;6.34;74.08;99414.34;8716946;32;20180;-72
2020/12/08 15:38:08;;;;;;;23.17;11.93;;;;;;;6.37;74.30;99419.47;8714613;32;20431;-73
2020/12/08 15:43:11;;;;;;;29.73;13.73;;;;;;;6.24;74.68;99433.50;8712351;32;20161;-72
2020/12/08 15:48:15;;;;;;;29.45;13.23;;;;;;;6.10;74.86;99427.38;8687087;32;20414;-74
2020/12/08 15:53:17;;;;;;;29.58;13.65;;;;;;;5.94;74.91;99417.72;8715403;32;20431;-74
2020/12/08 15:58:20;;;;;;;32.13;16.77;;;;;;;5.84;75.78;99427.19;8718015;32;20267;-72
2020/12/08 16:03:23;;;;;;;27.73;12.60;;;;;;;5.82;75.48;99429.09;8692785;32;20479;-72
2020/12/08 16:08:25;;;;;;;25.90;13.32;;;;;;;5.86;76.04;99437.69;8717585;32;20596;-72
2020/12/08 16:13:28;;;;;;;26.10;13.45;;;;;;;5.93;76.08;99442.56;8716913;32;20416;-72
2020/12/08 16:18:31;;;;;;;32.17;17.10;;;;;;;5.98;75.86;99432.50;8716731;32;20542;-73
2020/12/08 16:23:35;;;;;;;29.63;14.20;;;;;;;6.06;75.93;99432.03;8712856;32;21461;-71
2020/12/08 16:28:37;;;;;;;31.00;17.77;;;;;;;6.10;75.77;99443.28;8709226;32;20141;-72
2020/12/08 16:33:42;;;;;;;29.65;16.27;;;;;;;6.16;75.67;99451.69;8706944;32;20653;-72
2020/12/08 16:38:44;;;;;;;31.27;15.05;;;;;;;6.26;75.73;99451.13;8703747;32;20850;-72
2020/12/08 16:43:46;;;;;;;32.17;16.17;;;;;;;6.25;75.52;99458.22;8681015;32;20735;-74
2020/12/08 16:48:50;;;;;;;28.85;14.77;;;;;;;6.21;75.06;99462.03;8705574;32;20454;-74
2020/12/08 16:53:53;;;;;;;29.38;15.32;;;;;;;6.14;75.24;99458.91;8707722;32;20181;-72
2020/12/08 16:58:55;;;;;;;24.55;14.13;;;;;;;5.97;75.46;99467.91;8684106;32;21155;-72
2020/12/08 17:03:59;;;;;;;28.27;15.88;;;;;;;5.83;75.87;99482.94;8705885;32;20441;-72
2020/12/08 17:09:01;;;;;;;27.95;14.25;;;;;;;5.67;75.98;99483.88;8706866;32;20454;-74
2020/12/08 17:14:04;;;;;;;29.27;14.88;;;;;;;5.65;76.17;99488.44;8710142;32;20508;-72
2020/12/08 17:19:09;;;;;;;30.67;16.88;;;;;;;5.60;76.30;99485.22;8680418;32;20150;-72
2020/12/08 17:24:12;;;;;;;47.92;23.88;;;;;;;5.46;76.52;99491.34;8651028;33;20188;-74
2020/12/08 17:29:15;;;;;;;40.10;20.23;;;;;;;5.35;76.82;99486.69;8657977;33;20488;-74
2020/12/08 17:34:19;;;;;;;29.98;14.70;;;;;;;5.19;76.88;99485.88;8666021;33;20324;-74
2020/12/08 17:39:22;;;;;;;37.75;18.95;;;;;;;5.08;76.90;99488.31;8670094;33;20987;-74
2020/12/08 17:44:24;;;;;;;33.05;16.30;;;;;;;4.96;77.25;99497.81;8677864;33;20429;-74
2020/12/08 17:49:27;;;;;;;36.60;17.60;;;;;;;4.78;77.75;99494.44;8680206;33;20185;-74
2020/12/08 17:54:30;;;;;;;55.67;25.75;;;;;;;4.69;78.82;99502.91;8676739;33;20445;-74
2020/12/08 17:59:38;;;;;;;41.85;20.38;;;;;;;4.72;78.67;99510.66;8674920;33;20525;-74
2020/12/08 18:04:42;;;;;;;35.88;19.67;;;;;;;4.67;78.49;99518.84;8676533;33;20472;-74
2020/12/08 18:09:44;;;;;;;38.30;20.08;;;;;;;4.69;78.72;99521.44;8666160;33;20281;-75
2020/12/08 18:14:47;;;;;;;43.17;22.13;;;;;;;4.59;78.10;99520.22;8663862;33;20550;-75
2020/12/08 18:19:50;;;;;;;37.72;21.38;;;;;;;4.51;78.50;99527.75;8674588;33;20421;-73
2020/12/08 18:24:52;;;;;;;41.88;20.83;;;;;;;4.48;78.30;99528.75;8674488;33;22156;-74
2020/12/08 18:29:55;;;;;;;36.17;18.90;;;;;;;4.42;78.23;99529.09;8638904;33;20396;-74
2020/12/08 18:35:15;;;;;;;30.05;16.08;;;;;;;4.40;79.04;99515.09;8658620;33;20149;-74
2020/12/08 18:40:18;;;;;;;33.83;15.40;;;;;;;4.41;78.54;99515.00;8656615;33;20273;-74
2020/12/08 18:45:21;;;;;;;35.83;16.48;;;;;;;4.37;78.56;99526.72;8656342;32;20504;-75
2020/12/08 18:50:24;;;;;;;34.53;16.42;;;;;;;4.34;78.71;99532.16;8658721;33;20189;-74
2020/12/08 18:55:27;;;;;;;33.90;15.32;;;;;;;4.30;78.46;99521.84;8658306;33;20410;-74
2020/12/08 19:00:32;;;;;;;36.15;16.77;;;;;;;4.25;78.84;99522.09;8660621;33;20189;-74
2020/12/08 19:05:36;;;;;;;32.58;15.93;;;;;;;4.18;79.00;99520.72;8661663;33;21049;-74
2020/12/08 19:10:39;;;;;;;30.57;16.77;;;;;;;4.13;78.44;99520.97;8657893;33;20439;-73
2020/12/08 19:15:41;;;;;;;71.53;33.78;;;;;;;3.99;78.70;99519.06;8633240;33;20278;-74
2020/12/08 19:20:45;;;;;;;44.27;22.03;;;;;;;3.89;78.90;99536.34;8661158;33;20408;-74
2020/12/08 19:25:48;;;;;;;30.63;13.65;;;;;;;3.58;79.75;99539.72;8662220;33;20265;-74
2020/12/08 19:30:51;;;;;;;44.03;21.75;;;;;;;3.48;80.78;99549.94;8663931;33;20151;-74
2020/12/08 19:35:54;;;;;;;37.67;17.47;;;;;;;3.53;81.23;99554.97;8664468;33;20526;-74
2020/12/08 19:41:00;;;;;;;38.57;17.97;;;;;;;3.69;80.93;99561.16;8670176;33;20325;-73
2020/12/08 19:46:02;;;;;;;36.37;17.93;;;;;;;3.90;80.76;99564.50;8676708;33;20432;-74
2020/12/08 19:51:06;;;;;;;42.37;18.93;;;;;;;4.08;80.51;99570.56;8676067;33;20192;-73
2020/12/08 19:56:08;;;;;;;41.73;19.03;;;;;;;4.23;80.38;99568.91;8680789;33;20441;-74
2020/12/08 20:01:10;;;;;;;43.07;20.73;;;;;;;4.22;79.72;99578.66;8669438;33;20880;-74
2020/12/08 20:06:14;;;;;;;39.80;18.80;;;;;;;4.17;79.63;99582.47;8680632;33;20455;-74
2020/12/08 20:11:16;;;;;;;32.97;17.07;;;;;;;4.11;79.59;99561.63;8681986;33;20265;-72
2020/12/08 20:16:19;;;;;;;36.07;17.60;;;;;;;4.00;80.05;99564.84;8681978;33;20982;-74
2020/12/08 20:21:22;;;;;;;40.60;20.00;;;;;;;3.97;79.70;99576.44;8678516;33;20147;-72
2020/12/08 20:26:25;;;;;;;39.80;19.83;;;;;;;3.95;79.74;99573.03;8682792;33;20185;-73
2020/12/08 20:31:28;;;;;;;47.70;21.90;;;;;;;3.91;79.95;99582.03;8674250;33;20277;-72
2020/12/08 20:36:33;;;;;;;45.03;20.25;;;;;;;4.04;79.96;99591.97;8668658;33;20405;-73
2020/12/08 20:41:37;;;;;;;43.30;21.47;;;;;;;4.05;79.68;99605.09;8664385;33;20428;-74
2020/12/08 20:46:39;;;;;;;39.53;19.97;;;;;;;3.94;79.40;99599.53;8662429;33;20401;-74
2020/12/08 20:51:42;;;;;;;42.37;19.87;;;;;;;3.88;79.52;99592.78;8660606;33;20185;-74
2020/12/08 20:56:50;;;;;;;39.20;19.55;;;;;;;3.82;79.18;99589.59;8663023;33;20418;-73
2020/12/08 21:01:54;;;;;;;37.53;18.70;;;;;;;3.62;79.59;99583.56;8674801;32;20130;-74
2020/12/08 21:06:57;;;;;;;32.53;17.63;;;;;;;3.44;79.73;99581.84;8711121;32;20407;-73
2020/12/08 21:11:59;;;;;;;34.27;16.63;;;;;;;3.09;80.44;99579.16;8716208;32;20138;-72
2020/12/08 21:17:02;;;;;;;30.73;17.20;;;;;;;2.99;80.36;99573.50;8738133;32;22507;-73
2020/12/08 21:22:05;;;;;;;46.40;21.53;;;;;;;2.96;80.70;99581.53;8709745;32;20637;-73
2020/12/08 21:27:08;;;;;;;39.13;18.80;;;;;;;2.91;80.43;99580.91;8710590;32;20432;-73
2020/12/08 21:32:11;;;;;;;54.13;23.53;;;;;;;2.90;81.04;99585.31;8709626;32;20444;-73
2020/12/08 21:37:14;;;;;;;57.40;23.13;;;;;;;2.87;80.49;99589.91;8708785;32;20928;-73
2020/12/08 21:42:17;;;;;;;47.53;20.63;;;;;;;2.84;80.77;99603.22;8683179;32;20239;-73
2020/12/08 21:47:20;;;;;;;49.03;21.90;;;;;;;2.95;80.39;99608.84;8675237;33;20434;-73
2020/12/08 21:52:23;;;;;;;37.17;18.77;;;;;;;2.96;80.84;99612.34;8675234;33;20414;-73
2020/12/08 21:57:26;;;;;;;41.53;18.27;;;;;;;2.81;80.33;99619.22;8675601;33;20180;-73
2020/12/08 22:02:28;;;;;;;36.30;16.87;;;;;;;2.54;81.18;99610.81;8676672;33;20146;-73
2020/12/08 22:07:32;;;;;;;38.73;15.93;;;;;;;2.56;81.21;99622.13;8682312;33;20288;-72
2020/12/08 22:12:35;;;;;;;36.97;18.23;;;;;;;2.70;81.43;99624.13;8683693;33;20582;-72
2020/12/08 22:17:38;;;;;;;32.90;17.70;;;;;;;2.74;81.03;99610.72;8685849;33;21782;-73
2020/12/08 22:22:42;;;;;;;39.23;17.70;;;;;;;2.54;81.21;99614.28;8657772;33;21007;-75
2020/12/08 22:27:45;;;;;;;34.23;16.43;;;;;;;2.60;81.68;99608.72;8674075;33;20177;-72
2020/12/08 22:32:49;;;;;;;39.03;18.43;;;;;;;2.14;82.14;99608.19;8677043;33;20413;-74
2020/12/08 22:37:52;;;;;;;48.93;21.37;;;;;;;2.19;82.79;99606.22;8674193;33;20438;-74
2020/12/08 22:42:54;;;;;;;49.60;21.83;;;;;;;2.46;82.31;99608.50;8663667;33;20654;-74
2020/12/08 22:47:57;;;;;;;46.53;22.20;;;;;;;2.56;82.01;99609.81;8638911;33;20462;-72
2020/12/08 22:53:00;;;;;;;51.37;20.00;;;;;;;2.56;82.05;99606.31;8661065;33;20517;-72
2020/12/08 22:58:02;;;;;;;46.67;21.07;;;;;;;2.61;82.03;99607.81;8660367;33;20169;-72
2020/12/08 23:03:05;;;;;;;43.20;20.13;;;;;;;2.59;81.64;99612.28;8660366;33;20460;-72
2020/12/08 23:08:08;;;;;;;41.43;20.17;;;;;;;2.51;81.44;99618.84;8668849;33;20149;-73
2020/12/08 23:13:10;;;;;;;34.27;18.50;;;;;;;2.41;81.34;99623.69;8673934;33;20165;-73
2020/12/08 23:18:13;;;;;;;44.07;21.17;;;;;;;2.27;81.06;99631.34;8673492;33;20434;-71
2020/12/08 23:23:16;;;;;;;41.93;21.00;;;;;;;2.14;80.96;99631.91;8673973;33;21072;-72
2020/12/08 23:28:18;;;;;;;42.27;21.80;;;;;;;2.17;80.87;99623.03;8676990;33;20154;-72
2020/12/08 23:33:20;;;;;;;47.40;22.43;;;;;;;2.22;80.92;99635.06;8681564;33;20182;-74